sensor_id;sensor_type;location;lat;lon;timestamp;pressure;altitude;pressure_sealevel;temperature;humidity
70921;BME280;58572;48.110;19.838;2024-01-30T00:00:33;100053.28;;;0.05;79.66
70921;BME280;58572;48.110;19.838;2024-01-30T00:03:00;100050.78;;;-0.31;80.92
70921;BME280;58572;48.110;19.838;2024-01-30T00:05:27;100053.22;;;-0.46;80.95
70921;BME280;58572;48.110;19.838;2024-01-30T00:07:56;100053.41;;;-0.39;82.22
70921;BME280;58572;48.110;19.838;2024-01-30T00:10:23;100052.09;;;-0.35;82.53
70921;BME280;58572;48.110;19.838;2024-01-30T00:12:50;100050.47;;;-0.28;82.10
70921;BME280;58572;48.110;19.838;2024-01-30T00:15:18;100051.81;;;-0.24;81.99
70921;BME280;58572;48.110;19.838;2024-01-30T00:17:45;100053.78;;;0.00;80.07
70921;BME280;58572;48.110;19.838;2024-01-30T00:20:12;100047.16;;;-0.14;80.68
70921;BME280;58572;48.110;19.838;2024-01-30T00:22:39;100047.16;;;-0.14;80.99
70921;BME280;58572;48.110;19.838;2024-01-30T00:25:08;100050.59;;;0.05;80.32
70921;BME280;58572;48.110;19.838;2024-01-30T00:27:35;100049.78;;;0.04;79.99
70921;BME280;58572;48.110;19.838;2024-01-30T00:30:03;100046.59;;;0.09;79.83
70921;BME280;58572;48.110;19.838;2024-01-30T00:32:30;100059.66;;;0.20;79.51
70921;BME280;58572;48.110;19.838;2024-01-30T00:34:57;100044.50;;;0.53;77.13
70921;BME280;58572;48.110;19.838;2024-01-30T00:37:24;100048.59;;;0.07;79.81
70921;BME280;58572;48.110;19.838;2024-01-30T00:39:51;100059.63;;;0.04;80.57
70921;BME280;58572;48.110;19.838;2024-01-30T00:42:19;100050.94;;;0.10;79.88
70921;BME280;58572;48.110;19.838;2024-01-30T00:44:46;100048.78;;;-0.29;81.73
70921;BME280;58572;48.110;19.838;2024-01-30T00:47:13;100050.13;;;-0.25;81.17
70921;BME280;58572;48.110;19.838;2024-01-30T00:49:40;100057.50;;;-0.19;80.63
70921;BME280;58572;48.110;19.838;2024-01-30T00:52:08;100045.16;;;-0.20;81.39
70921;BME280;58572;48.110;19.838;2024-01-30T00:54:35;100064.88;;;-0.13;81.49
70921;BME280;58572;48.110;19.838;2024-01-30T00:57:02;100054.31;;;0.20;79.48
70921;BME280;58572;48.110;19.838;2024-01-30T00:59:30;100045.16;;;-0.20;80.57
70921;BME280;58572;48.110;19.838;2024-01-30T01:01:57;100058.13;;;-0.33;80.88
70921;BME280;58572;48.110;19.838;2024-01-30T01:04:24;100056.75;;;-0.37;80.98
70921;BME280;58572;48.110;19.838;2024-01-30T01:06:52;100045.81;;;-0.18;81.58
70921;BME280;58572;48.110;19.838;2024-01-30T01:09:19;100047.81;;;-0.20;81.55
70921;BME280;58572;48.110;19.838;2024-01-30T01:11:46;100049.47;;;-0.61;81.56
70921;BME280;58572;48.110;19.838;2024-01-30T01:14:13;100050.19;;;-0.51;82.42
70921;BME280;58572;48.110;19.838;2024-01-30T01:16:41;100037.34;;;-0.47;83.42
70921;BME280;58572;48.110;19.838;2024-01-30T01:19:08;100032.75;;;-0.29;82.92
70921;BME280;58572;48.110;19.838;2024-01-30T01:21:35;100041.16;;;-0.16;80.84
70921;BME280;58572;48.110;19.838;2024-01-30T01:24:03;100037.25;;;-0.29;82.56
70921;BME280;58572;48.110;19.838;2024-01-30T01:26:30;100035.94;;;0.25;80.23
70921;BME280;58572;48.110;19.838;2024-01-30T01:28:57;100031.97;;;0.61;77.63
70921;BME280;58572;48.110;19.838;2024-01-30T01:31:24;100030.78;;;0.88;74.92
70921;BME280;58572;48.110;19.838;2024-01-30T01:33:56;100039.34;;;0.76;75.37
70921;BME280;58572;48.110;19.838;2024-01-30T01:36:23;100030.31;;;0.77;73.98
70921;BME280;58572;48.110;19.838;2024-01-30T01:38:50;99985.81;;;0.35;73.72
70921;BME280;58572;48.110;19.838;2024-01-30T01:41:17;100035.28;;;0.23;75.64
70921;BME280;58572;48.110;19.838;2024-01-30T01:43:44;100036.84;;;-0.01;76.15
70921;BME280;58572;48.110;19.838;2024-01-30T01:46:11;100039.75;;;0.14;76.15
70921;BME280;58572;48.110;19.838;2024-01-30T01:48:39;100036.44;;;0.20;75.20
70921;BME280;58572;48.110;19.838;2024-01-30T01:51:08;100033.47;;;-0.11;77.62
70921;BME280;58572;48.110;19.838;2024-01-30T01:53:36;100030.78;;;-0.19;77.08
70921;BME280;58572;48.110;19.838;2024-01-30T01:56:04;100030.81;;;-0.11;77.93
70921;BME280;58572;48.110;19.838;2024-01-30T01:58:31;100031.56;;;-0.35;78.81
70921;BME280;58572;48.110;19.838;2024-01-30T02:00:59;100026.13;;;-0.17;79.97
70921;BME280;58572;48.110;19.838;2024-01-30T02:03:26;100013.56;;;0.34;77.82
70921;BME280;58572;48.110;19.838;2024-01-30T02:05:54;100011.19;;;0.23;76.57
70921;BME280;58572;48.110;19.838;2024-01-30T02:08:23;100010.88;;;0.26;79.11
70921;BME280;58572;48.110;19.838;2024-01-30T02:10:51;100007.88;;;0.37;75.64
70921;BME280;58572;48.110;19.838;2024-01-30T02:13:18;100017.59;;;0.46;73.98
70921;BME280;58572;48.110;19.838;2024-01-30T02:15:49;100022.53;;;0.01;76.10
70921;BME280;58572;48.110;19.838;2024-01-30T02:18:16;100033.47;;;-0.19;76.70
70921;BME280;58572;48.110;19.838;2024-01-30T02:20:43;100032.50;;;-0.02;75.28
70921;BME280;58572;48.110;19.838;2024-01-30T02:23:12;100030.28;;;0.28;74.83
70921;BME280;58572;48.110;19.838;2024-01-30T02:25:40;100035.28;;;0.23;73.86
70921;BME280;58572;48.110;19.838;2024-01-30T02:28:10;100028.75;;;-0.25;76.68
70921;BME280;58572;48.110;19.838;2024-01-30T02:30:37;100030.41;;;0.18;74.74
70921;BME280;58572;48.110;19.838;2024-01-30T02:33:04;100027.88;;;0.09;74.69
70921;BME280;58572;48.110;19.838;2024-01-30T02:35:31;100028.88;;;0.08;74.57
70921;BME280;58572;48.110;19.838;2024-01-30T02:37:59;100029.47;;;-0.15;75.61
70921;BME280;58572;48.110;19.838;2024-01-30T02:40:27;100029.91;;;0.15;75.57
70921;BME280;58572;48.110;19.838;2024-01-30T02:42:54;100035.75;;;0.18;73.39
70921;BME280;58572;48.110;19.838;2024-01-30T02:45:21;100028.88;;;0.08;74.98
70921;BME280;58572;48.110;19.838;2024-01-30T02:47:48;100025.22;;;0.09;73.31
70921;BME280;58572;48.110;19.838;2024-01-30T02:50:15;100018.00;;;0.01;74.72
70921;BME280;58572;48.110;19.838;2024-01-30T02:52:43;100016.88;;;0.12;75.61
70921;BME280;58572;48.110;19.838;2024-01-30T02:55:10;100025.94;;;-0.57;78.54
70921;BME280;58572;48.110;19.838;2024-01-30T02:57:39;100014.19;;;0.12;74.94
70921;BME280;58572;48.110;19.838;2024-01-30T03:00:07;100015.59;;;-0.18;75.09
70921;BME280;58572;48.110;19.838;2024-01-30T03:02:35;100007.69;;;0.30;73.30
70921;BME280;58572;48.110;19.838;2024-01-30T03:05:02;100013.88;;;0.31;72.86
70921;BME280;58572;48.110;19.838;2024-01-30T03:07:29;100021.75;;;-0.26;75.38
70921;BME280;58572;48.110;19.838;2024-01-30T03:09:56;100020.00;;;-0.43;76.02
70921;BME280;58572;48.110;19.838;2024-01-30T03:12:23;100028.63;;;-0.15;75.42
70921;BME280;58572;48.110;19.838;2024-01-30T03:14:52;100025.72;;;-0.30;76.08
70921;BME280;58572;48.110;19.838;2024-01-30T03:17:19;100024.00;;;-0.47;76.39
70921;BME280;58572;48.110;19.838;2024-01-30T03:19:46;100028.16;;;-0.45;76.32
70921;BME280;58572;48.110;19.838;2024-01-30T03:22:13;100024.06;;;-0.31;77.04
70921;BME280;58572;48.110;19.838;2024-01-30T03:24:40;100029.78;;;-0.18;75.41
70921;BME280;58572;48.110;19.838;2024-01-30T03:27:07;100033.50;;;-0.79;77.88
70921;BME280;58572;48.110;19.838;2024-01-30T03:29:34;100029.94;;;-0.61;77.01
70921;BME280;58572;48.110;19.838;2024-01-30T03:32:04;100036.16;;;-0.11;75.01
70921;BME280;58572;48.110;19.838;2024-01-30T03:34:31;100032.59;;;0.15;74.90
70921;BME280;58572;48.110;19.838;2024-01-30T03:36:58;100034.09;;;0.17;72.70
70921;BME280;58572;48.110;19.838;2024-01-30T03:39:25;100032.22;;;-0.33;76.82
70921;BME280;58572;48.110;19.838;2024-01-30T03:41:52;100038.16;;;-0.81;78.99
70921;BME280;58572;48.110;19.838;2024-01-30T03:44:19;100031.81;;;-0.80;80.44
70921;BME280;58572;48.110;19.838;2024-01-30T03:46:46;100029.44;;;-1.09;82.43
70921;BME280;58572;48.110;19.838;2024-01-30T03:49:16;100025.72;;;-0.98;82.64
70921;BME280;58572;48.110;19.838;2024-01-30T03:51:43;100028.84;;;-0.77;82.04
70921;BME280;58572;48.110;19.838;2024-01-30T03:54:10;100017.97;;;-0.49;81.26
70921;BME280;58572;48.110;19.838;2024-01-30T03:56:37;100020.72;;;-0.33;79.91
70921;BME280;58572;48.110;19.838;2024-01-30T03:59:04;100015.56;;;-0.26;80.39
70921;BME280;58572;48.110;19.838;2024-01-30T04:01:31;100026.44;;;-0.20;80.35
70921;BME280;58572;48.110;19.838;2024-01-30T04:03:59;100018.47;;;-0.04;79.30
70921;BME280;58572;48.110;19.838;2024-01-30T04:06:27;100022.56;;;0.17;75.66
70921;BME280;58572;48.110;19.838;2024-01-30T04:08:54;100029.56;;;0.10;76.32
70921;BME280;58572;48.110;19.838;2024-01-30T04:11:21;100025.09;;;-0.24;76.03
70921;BME280;58572;48.110;19.838;2024-01-30T04:13:48;100023.53;;;0.08;76.44
70921;BME280;58572;48.110;19.838;2024-01-30T04:16:22;100025.59;;;-0.88;79.80
70921;BME280;58572;48.110;19.838;2024-01-30T04:18:49;100031.16;;;-0.82;82.16
70921;BME280;58572;48.110;19.838;2024-01-30T04:21:16;100016.53;;;-0.36;79.82
70921;BME280;58572;48.110;19.838;2024-01-30T04:23:44;100024.22;;;-0.67;81.59
70921;BME280;58572;48.110;19.838;2024-01-30T04:26:11;100008.59;;;-0.53;80.16
70921;BME280;58572;48.110;19.838;2024-01-30T04:28:40;100008.16;;;-0.41;80.26
70921;BME280;58572;48.110;19.838;2024-01-30T04:31:07;100011.88;;;-0.68;80.80
70921;BME280;58572;48.110;19.838;2024-01-30T04:33:34;100007.00;;;-0.38;80.74
70921;BME280;58572;48.110;19.838;2024-01-30T04:36:02;100010.44;;;-0.04;79.19
70921;BME280;58572;48.110;19.838;2024-01-30T04:38:29;100011.22;;;0.39;75.85
70921;BME280;58572;48.110;19.838;2024-01-30T04:40:58;100013.88;;;0.31;73.83
70921;BME280;58572;48.110;19.838;2024-01-30T04:43:25;100018.88;;;0.18;73.49
70921;BME280;58572;48.110;19.838;2024-01-30T04:45:52;100027.56;;;-0.65;77.42
70921;BME280;58572;48.110;19.838;2024-01-30T04:48:19;100026.81;;;-1.26;81.06
70921;BME280;58572;48.110;19.838;2024-01-30T04:50:46;100024.25;;;-1.10;81.10
70921;BME280;58572;48.110;19.838;2024-01-30T04:53:13;100019.16;;;-1.21;82.16
70921;BME280;58572;48.110;19.838;2024-01-30T04:55:40;100019.69;;;-1.00;81.79
70921;BME280;58572;48.110;19.838;2024-01-30T04:58:09;100028.88;;;-0.69;81.02
70921;BME280;58572;48.110;19.838;2024-01-30T05:00:36;100022.47;;;-0.50;80.23
70921;BME280;58572;48.110;19.838;2024-01-30T05:03:03;100025.53;;;-0.71;81.01
70921;BME280;58572;48.110;19.838;2024-01-30T05:05:30;100036.94;;;-0.60;80.84
70921;BME280;58572;48.110;19.838;2024-01-30T05:07:57;100028.56;;;-0.32;79.83
70921;BME280;58572;48.110;19.838;2024-01-30T05:10:24;100028.88;;;0.08;74.66
70921;BME280;58572;48.110;19.838;2024-01-30T05:12:51;100019.59;;;-0.14;77.38
70921;BME280;58572;48.110;19.838;2024-01-30T05:15:20;100034.25;;;0.16;76.16
70921;BME280;58572;48.110;19.838;2024-01-30T05:17:47;100033.97;;;-0.15;77.67
70921;BME280;58572;48.110;19.838;2024-01-30T05:20:14;100036.47;;;-0.14;78.27
70921;BME280;58572;48.110;19.838;2024-01-30T05:22:41;100046.72;;;-0.43;78.40
70921;BME280;58572;48.110;19.838;2024-01-30T05:25:10;100033.22;;;-0.34;78.79
70921;BME280;58572;48.110;19.838;2024-01-30T05:27:37;100040.16;;;-0.15;79.55
70921;BME280;58572;48.110;19.838;2024-01-30T05:30:06;100042.31;;;0.32;75.89
70921;BME280;58572;48.110;19.838;2024-01-30T05:32:34;100033.81;;;0.45;73.15
70921;BME280;58572;48.110;19.838;2024-01-30T05:35:02;100037.25;;;0.05;73.72
70921;BME280;58572;48.110;19.838;2024-01-30T05:37:29;100039.25;;;0.03;73.59
70921;BME280;58572;48.110;19.838;2024-01-30T05:39:56;100046.28;;;-0.30;74.88
70921;BME280;58572;48.110;19.838;2024-01-30T05:42:23;100057.16;;;-0.58;75.82
70921;BME280;58572;48.110;19.838;2024-01-30T05:44:50;100045.75;;;-0.34;75.94
70921;BME280;58572;48.110;19.838;2024-01-30T05:47:17;100034.72;;;-0.39;76.59
70921;BME280;58572;48.110;19.838;2024-01-30T05:49:45;100045.44;;;-0.91;78.56
70921;BME280;58572;48.110;19.838;2024-01-30T05:52:12;100044.00;;;-0.51;75.91
70921;BME280;58572;48.110;19.838;2024-01-30T05:54:40;100037.50;;;-0.07;74.02
70921;BME280;58572;48.110;19.838;2024-01-30T05:57:07;100045.00;;;-0.10;73.18
70921;BME280;58572;48.110;19.838;2024-01-30T05:59:34;100045.88;;;-0.02;73.65
70921;BME280;58572;48.110;19.838;2024-01-30T06:02:03;100053.56;;;-1.18;80.15
70921;BME280;58572;48.110;19.838;2024-01-30T06:04:30;100050.00;;;-0.83;79.04
70921;BME280;58572;48.110;19.838;2024-01-30T06:06:58;99997.66;;;-1.02;76.54
70921;BME280;58572;48.110;19.838;2024-01-30T06:09:27;100039.31;;;-0.57;78.00
70921;BME280;58572;48.110;19.838;2024-01-30T06:11:55;100049.94;;;-0.32;76.32
70921;BME280;58572;48.110;19.838;2024-01-30T06:14:22;100055.81;;;-0.28;75.36
70921;BME280;58572;48.110;19.838;2024-01-30T06:16:49;100054.25;;;-0.39;76.38
70921;BME280;58572;48.110;19.838;2024-01-30T06:19:16;100050.38;;;-0.02;75.01
70921;BME280;58572;48.110;19.838;2024-01-30T06:21:44;100052.66;;;-0.23;73.56
70921;BME280;58572;48.110;19.838;2024-01-30T06:24:12;100058.25;;;-0.69;75.93
70921;BME280;58572;48.110;19.838;2024-01-30T06:26:39;100063.53;;;-1.20;80.38
70921;BME280;58572;48.110;19.838;2024-01-30T06:29:06;100061.72;;;-1.02;80.27
70921;BME280;58572;48.110;19.838;2024-01-30T06:31:40;100053.75;;;-0.94;78.63
70921;BME280;58572;48.110;19.838;2024-01-30T06:34:07;100049.22;;;-0.42;78.01
70921;BME280;58572;48.110;19.838;2024-01-30T06:36:34;100056.09;;;-0.39;78.66
70921;BME280;58572;48.110;19.838;2024-01-30T06:39:01;100057.28;;;0.01;73.65
70921;BME280;58572;48.110;19.838;2024-01-30T06:41:30;100053.47;;;0.19;72.51
70921;BME280;58572;48.110;19.838;2024-01-30T06:43:57;100054.81;;;0.15;72.20
70921;BME280;58572;48.110;19.838;2024-01-30T06:46:24;100055.19;;;-0.14;73.10
70921;BME280;58572;48.110;19.838;2024-01-30T06:48:51;100054.16;;;-0.21;73.18
70921;BME280;58572;48.110;19.838;2024-01-30T06:51:18;100057.31;;;-0.59;76.25
70921;BME280;58572;48.110;19.838;2024-01-30T06:53:45;100063.97;;;-1.07;80.68
70921;BME280;58572;48.110;19.838;2024-01-30T06:56:12;100060.69;;;-0.83;78.69
70921;BME280;58572;48.110;19.838;2024-01-30T06:58:41;100068.13;;;-0.69;79.47
70921;BME280;58572;48.110;19.838;2024-01-30T07:01:08;100064.75;;;-0.45;80.55
70921;BME280;58572;48.110;19.838;2024-01-30T07:03:35;100058.09;;;-0.41;81.17
70921;BME280;58572;48.110;19.838;2024-01-30T07:06:02;100066.06;;;-0.07;78.14
70921;BME280;58572;48.110;19.838;2024-01-30T07:08:29;100061.72;;;0.34;73.41
70921;BME280;58572;48.110;19.838;2024-01-30T07:10:56;100058.25;;;0.66;71.36
70921;BME280;58572;48.110;19.838;2024-01-30T07:13:23;100072.22;;;0.27;73.36
70921;BME280;58572;48.110;19.838;2024-01-30T07:15:52;100071.72;;;0.24;74.15
70921;BME280;58572;48.110;19.838;2024-01-30T07:18:19;100079.47;;;-0.41;77.37
70921;BME280;58572;48.110;19.838;2024-01-30T07:20:46;100053.81;;;-0.86;79.64
70921;BME280;58572;48.110;19.838;2024-01-30T07:23:14;100077.34;;;0.05;77.67
70921;BME280;58572;48.110;19.838;2024-01-30T07:25:43;100049.31;;;0.17;72.96
70921;BME280;58572;48.110;19.838;2024-01-30T07:28:10;100075.44;;;0.39;74.92
70921;BME280;58572;48.110;19.838;2024-01-30T07:30:38;100072.88;;;0.21;75.93
70921;BME280;58572;48.110;19.838;2024-01-30T07:33:06;100073.41;;;0.25;76.86
70921;BME280;58572;48.110;19.838;2024-01-30T07:35:34;100076.78;;;0.43;75.54
70921;BME280;58572;48.110;19.838;2024-01-30T07:38:01;100075.75;;;0.28;73.77
70921;BME280;58572;48.110;19.838;2024-01-30T07:40:28;100075.41;;;0.23;75.80
70921;BME280;58572;48.110;19.838;2024-01-30T07:42:55;100079.38;;;0.11;75.03
70921;BME280;58572;48.110;19.838;2024-01-30T07:45:22;100081.13;;;-0.06;78.06
70921;BME280;58572;48.110;19.838;2024-01-30T07:47:50;100074.84;;;0.03;78.05
70921;BME280;58572;48.110;19.838;2024-01-30T07:50:18;100078.06;;;-0.19;78.78
70921;BME280;58572;48.110;19.838;2024-01-30T07:52:45;100080.84;;;-0.29;80.31
70921;BME280;58572;48.110;19.838;2024-01-30T07:58:28;100074.53;;;0.14;80.35
70921;BME280;58572;48.110;19.838;2024-01-30T08:00:55;100070.94;;;-0.03;80.51
70921;BME280;58572;48.110;19.838;2024-01-30T08:03:23;100073.00;;;0.04;80.96
70921;BME280;58572;48.110;19.838;2024-01-30T08:05:52;100069.06;;;0.32;79.67
70921;BME280;58572;48.110;19.838;2024-01-30T08:08:19;100059.75;;;0.93;76.41
70921;BME280;58572;48.110;19.838;2024-01-30T08:10:46;100054.38;;;0.60;76.66
70921;BME280;58572;48.110;19.838;2024-01-30T08:13:14;100067.25;;;0.41;79.23
70921;BME280;58572;48.110;19.838;2024-01-30T08:15:41;100074.44;;;0.40;79.42
70921;BME280;58572;48.110;19.838;2024-01-30T08:18:08;100069.75;;;0.42;80.29
70921;BME280;58572;48.110;19.838;2024-01-30T08:20:35;100061.41;;;1.02;77.68
70921;BME280;58572;48.110;19.838;2024-01-30T08:23:04;100055.56;;;0.90;78.02
70921;BME280;58572;48.110;19.838;2024-01-30T08:25:31;100056.72;;;0.63;80.01
70921;BME280;58572;48.110;19.838;2024-01-30T08:27:58;100060.75;;;0.84;78.98
70921;BME280;58572;48.110;19.838;2024-01-30T08:30:25;100065.09;;;0.69;79.23
70921;BME280;58572;48.110;19.838;2024-01-30T08:32:53;100060.75;;;0.84;79.77
70921;BME280;58572;48.110;19.838;2024-01-30T08:35:20;100058.06;;;0.59;80.75
70921;BME280;58572;48.110;19.838;2024-01-30T08:37:47;100060.72;;;0.43;81.66
70921;BME280;58572;48.110;19.838;2024-01-30T08:40:15;100066.41;;;0.40;82.63
70921;BME280;58572;48.110;19.838;2024-01-30T08:42:42;100071.09;;;0.46;83.49
70921;BME280;58572;48.110;19.838;2024-01-30T08:45:10;100065.94;;;0.69;82.28
70921;BME280;58572;48.110;19.838;2024-01-30T08:47:37;100069.44;;;0.86;81.41
70921;BME280;58572;48.110;19.838;2024-01-30T08:50:05;100070.78;;;0.98;81.26
70921;BME280;58572;48.110;19.838;2024-01-30T08:52:32;100075.00;;;1.17;80.73
70921;BME280;58572;48.110;19.838;2024-01-30T08:54:59;100064.47;;;1.07;81.38
70921;BME280;58572;48.110;19.838;2024-01-30T08:57:28;100062.13;;;1.04;82.54
70921;BME280;58572;48.110;19.838;2024-01-30T08:59:56;100064.50;;;1.63;80.59
70921;BME280;58572;48.110;19.838;2024-01-30T09:02:23;100046.94;;;1.52;80.85
70921;BME280;58572;48.110;19.838;2024-01-30T09:04:50;100055.66;;;1.54;81.31
70921;BME280;58572;48.110;19.838;2024-01-30T09:07:17;100052.84;;;1.86;80.09
70921;BME280;58572;48.110;19.838;2024-01-30T09:09:49;100054.84;;;2.32;79.42
70921;BME280;58572;48.110;19.838;2024-01-30T09:12:20;100050.91;;;2.42;79.29
70921;BME280;58572;48.110;19.838;2024-01-30T09:14:48;100052.94;;;2.63;81.12
70921;BME280;58572;48.110;19.838;2024-01-30T09:17:15;100053.28;;;1.67;81.77
70921;BME280;58572;48.110;19.838;2024-01-30T09:19:42;100053.47;;;1.97;82.24
70921;BME280;58572;48.110;19.838;2024-01-30T09:22:09;100046.97;;;2.30;80.69
70921;BME280;58572;48.110;19.838;2024-01-30T09:24:36;100043.50;;;2.90;80.05
70921;BME280;58572;48.110;19.838;2024-01-30T09:27:04;100053.06;;;2.70;78.76
70921;BME280;58572;48.110;19.838;2024-01-30T09:29:31;100049.28;;;2.33;79.70
70921;BME280;58572;48.110;19.838;2024-01-30T09:32:01;100050.47;;;3.22;77.41
70921;BME280;58572;48.110;19.838;2024-01-30T09:34:28;100042.53;;;4.38;73.85
70921;BME280;58572;48.110;19.838;2024-01-30T09:36:55;100033.66;;;5.64;70.60
70921;BME280;58572;48.110;19.838;2024-01-30T09:39:22;100047.44;;;3.55;74.84
70921;BME280;58572;48.110;19.838;2024-01-30T09:41:55;100057.00;;;3.57;74.70
70921;BME280;58572;48.110;19.838;2024-01-30T09:44:28;100042.97;;;4.42;72.12
70921;BME280;58572;48.110;19.838;2024-01-30T09:46:56;100036.25;;;4.95;72.83
70921;BME280;58572;48.110;19.838;2024-01-30T09:49:30;100037.69;;;6.90;66.79
70921;BME280;58572;48.110;19.838;2024-01-30T09:51:58;100035.59;;;6.79;66.17
70921;BME280;58572;48.110;19.838;2024-01-30T09:54:25;100017.94;;;8.07;63.99
70921;BME280;58572;48.110;19.838;2024-01-30T09:56:52;100021.19;;;8.29;63.02
70921;BME280;58572;48.110;19.838;2024-01-30T09:59:19;100032.66;;;6.74;63.48
70921;BME280;58572;48.110;19.838;2024-01-30T10:01:47;100019.97;;;7.60;61.21
70921;BME280;58572;48.110;19.838;2024-01-30T10:04:15;100014.47;;;9.08;59.34
70921;BME280;58572;48.110;19.838;2024-01-30T10:06:43;100025.31;;;9.57;58.63
70921;BME280;58572;48.110;19.838;2024-01-30T10:09:10;100020.50;;;9.10;61.47
70921;BME280;58572;48.110;19.838;2024-01-30T10:11:39;100023.50;;;8.19;59.87
70921;BME280;58572;48.110;19.838;2024-01-30T10:14:06;100030.06;;;7.98;60.96
70921;BME280;58572;48.110;19.838;2024-01-30T10:16:34;100037.38;;;5.29;68.72
70921;BME280;58572;48.110;19.838;2024-01-30T10:19:01;100026.53;;;6.32;66.68
70921;BME280;58572;48.110;19.838;2024-01-30T10:21:29;100004.47;;;11.85;54.84
70921;BME280;58572;48.110;19.838;2024-01-30T10:23:58;100012.03;;;8.37;59.33
70921;BME280;58572;48.110;19.838;2024-01-30T10:26:25;99998.53;;;9.79;56.32
70921;BME280;58572;48.110;19.838;2024-01-30T10:28:54;99999.63;;;8.54;56.61
70921;BME280;58572;48.110;19.838;2024-01-30T10:31:21;99990.22;;;11.01;57.42
70921;BME280;58572;48.110;19.838;2024-01-30T10:33:49;99991.75;;;10.55;50.51
70921;BME280;58572;48.110;19.838;2024-01-30T10:36:17;99992.28;;;9.36;60.38
70921;BME280;58572;48.110;19.838;2024-01-30T10:38:45;99985.81;;;11.00;55.06
70921;BME280;58572;48.110;19.838;2024-01-30T10:41:15;99988.41;;;9.25;55.11
70921;BME280;58572;48.110;19.838;2024-01-30T10:43:52;99989.97;;;9.39;56.48
70921;BME280;58572;48.110;19.838;2024-01-30T10:46:30;100006.47;;;7.21;59.81
70921;BME280;58572;48.110;19.838;2024-01-30T10:48:59;99986.53;;;9.50;56.56
70921;BME280;58572;48.110;19.838;2024-01-30T10:51:37;99992.78;;;8.76;60.17
70921;BME280;58572;48.110;19.838;2024-01-30T10:54:20;99979.75;;;9.96;59.16
70921;BME280;58572;48.110;19.838;2024-01-30T10:56:50;99975.81;;;9.74;53.93
70921;BME280;58572;48.110;19.838;2024-01-30T10:59:18;99989.34;;;8.18;55.41
70921;BME280;58572;48.110;19.838;2024-01-30T11:01:45;99972.28;;;9.91;58.11
70921;BME280;58572;48.110;19.838;2024-01-30T11:04:13;99990.66;;;6.65;60.44
70921;BME280;58572;48.110;19.838;2024-01-30T11:06:41;99986.50;;;7.28;62.14
70921;BME280;58572;48.110;19.838;2024-01-30T11:09:11;99961.25;;;9.86;59.68
70921;BME280;58572;48.110;19.838;2024-01-30T11:11:56;99926.00;;;9.25;55.77
70921;BME280;58572;48.110;19.838;2024-01-30T11:14:25;99963.19;;;9.00;50.73
70921;BME280;58572;48.110;19.838;2024-01-30T11:16:53;99960.88;;;9.46;56.52
70921;BME280;58572;48.110;19.838;2024-01-30T11:19:23;99970.88;;;8.01;59.91
70921;BME280;58572;48.110;19.838;2024-01-30T11:21:52;99971.00;;;7.68;57.30
70921;BME280;58572;48.110;19.838;2024-01-30T11:24:22;99958.84;;;6.67;60.32
70921;BME280;58572;48.110;19.838;2024-01-30T11:26:49;99967.69;;;6.21;59.24
70921;BME280;58572;48.110;19.838;2024-01-30T11:29:18;99961.31;;;7.41;57.94
70921;BME280;58572;48.110;19.838;2024-01-30T11:31:52;99956.59;;;7.81;60.59
70921;BME280;58572;48.110;19.838;2024-01-30T11:34:20;99971.06;;;5.41;62.59
70921;BME280;58572;48.110;19.838;2024-01-30T11:36:52;99963.63;;;6.52;64.15
70921;BME280;58572;48.110;19.838;2024-01-30T11:39:21;99947.41;;;6.52;59.08
70921;BME280;58572;48.110;19.838;2024-01-30T11:41:51;99968.00;;;4.67;64.29
70921;BME280;58572;48.110;19.838;2024-01-30T11:44:20;99923.69;;;6.27;63.05
70921;BME280;58572;48.110;19.838;2024-01-30T11:46:48;99951.78;;;5.44;65.90
70921;BME280;58572;48.110;19.838;2024-01-30T11:49:16;99954.25;;;5.11;60.67
70921;BME280;58572;48.110;19.838;2024-01-30T11:51:43;99948.25;;;5.43;59.25
70921;BME280;58572;48.110;19.838;2024-01-30T11:54:14;99940.75;;;5.87;60.58
70921;BME280;58572;48.110;19.838;2024-01-30T11:56:42;99935.69;;;6.18;64.02
70921;BME280;58572;48.110;19.838;2024-01-30T11:59:09;99943.56;;;5.59;65.01
70921;BME280;58572;48.110;19.838;2024-01-30T12:01:38;99936.59;;;6.85;62.04
70921;BME280;58572;48.110;19.838;2024-01-30T12:04:05;99932.84;;;5.03;64.51
70921;BME280;58572;48.110;19.838;2024-01-30T12:06:34;99939.09;;;4.54;67.67
70921;BME280;58572;48.110;19.838;2024-01-30T12:09:02;99921.72;;;4.14;65.29
70921;BME280;58572;48.110;19.838;2024-01-30T12:11:30;99918.72;;;5.29;66.20
70921;BME280;58572;48.110;19.838;2024-01-30T12:13:58;99925.41;;;4.77;65.18
70921;BME280;58572;48.110;19.838;2024-01-30T12:16:25;99922.41;;;4.93;65.98
70921;BME280;58572;48.110;19.838;2024-01-30T12:19:00;99937.84;;;4.29;65.41
70921;BME280;58572;48.110;19.838;2024-01-30T12:21:28;99910.41;;;4.68;65.54
70921;BME280;58572;48.110;19.838;2024-01-30T12:23:56;99921.81;;;4.21;68.23
70921;BME280;58572;48.110;19.838;2024-01-30T12:26:24;99921.84;;;4.48;65.74
70921;BME280;58572;48.110;19.838;2024-01-30T12:28:54;99930.03;;;3.98;69.57
70921;BME280;58572;48.110;19.838;2024-01-30T12:31:26;99920.00;;;4.77;67.33
70921;BME280;58572;48.110;19.838;2024-01-30T12:33:54;99929.97;;;3.40;70.53
70921;BME280;58572;48.110;19.838;2024-01-30T12:36:23;99929.72;;;3.20;72.49
70921;BME280;58572;48.110;19.838;2024-01-30T12:38:50;99924.59;;;3.26;72.61
70921;BME280;58572;48.110;19.838;2024-01-30T12:41:17;99913.75;;;3.84;70.44
70921;BME280;58572;48.110;19.838;2024-01-30T12:43:46;99909.34;;;4.90;67.18
70921;BME280;58572;48.110;19.838;2024-01-30T12:46:17;99918.97;;;3.71;69.06
70921;BME280;58572;48.110;19.838;2024-01-30T12:48:44;99915.38;;;4.00;68.68
70921;BME280;58572;48.110;19.838;2024-01-30T12:51:11;99917.38;;;3.77;70.58
70921;BME280;58572;48.110;19.838;2024-01-30T12:53:39;99916.28;;;3.20;73.36